sensor_id;sensor_type;location;lat;lon;timestamp;P1;durP1;ratioP1;P2;durP2;ratioP2
23498;SDS011;11926;48.120;11.562;2023-08-12T00:00:11;5.85;;;4.20;;
23498;SDS011;11926;48.120;11.562;2023-08-12T00:03:03;5.93;;;4.57;;
23498;SDS011;11926;48.120;11.562;2023-08-12T00:05:51;9.05;;;4.80;;
23498;SDS011;11926;48.120;11.562;2023-08-12T00:08:39;7.70;;;4.95;;
23498;SDS011;11926;48.120;11.562;2023-08-12T00:11:28;6.90;;;4.70;;
23498;SDS011;11926;48.120;11.562;2023-08-12T00:14:16;8.13;;;5.13;;
23498;SDS011;11926;48.120;11.562;2023-08-12T00:17:03;9.88;;;4.75;;
23498;SDS011;11926;48.120;11.562;2023-08-12T00:19:51;7.68;;;4.78;;
23498;SDS011;11926;48.120;11.562;2023-08-12T00:22:37;7.25;;;4.75;;
23498;SDS011;11926;48.120;11.562;2023-08-12T00:25:25;8.18;;;4.95;;
23498;SDS011;11926;48.120;11.562;2023-08-12T00:28:14;8.07;;;4.95;;
23498;SDS011;11926;48.120;11.562;2023-08-12T00:31:01;8.75;;;5.15;;
23498;SDS011;11926;48.120;11.562;2023-08-12T00:33:50;7.43;;;4.85;;
23498;SDS011;11926;48.120;11.562;2023-08-12T00:36:37;9.13;;;5.22;;
23498;SDS011;11926;48.120;11.562;2023-08-12T00:39:25;7.45;;;5.60;;
23498;SDS011;11926;48.120;11.562;2023-08-12T00:42:13;8.65;;;5.50;;
23498;SDS011;11926;48.120;11.562;2023-08-12T00:45:06;6.15;;;5.10;;
23498;SDS011;11926;48.120;11.562;2023-08-12T00:47:59;8.40;;;5.80;;
23498;SDS011;11926;48.120;11.562;2023-08-12T00:50:46;9.07;;;5.90;;
23498;SDS011;11926;48.120;11.562;2023-08-12T00:53:34;8.82;;;5.40;;
23498;SDS011;11926;48.120;11.562;2023-08-12T00:56:21;8.82;;;5.57;;
23498;SDS011;11926;48.120;11.562;2023-08-12T00:59:09;10.30;;;5.63;;
23498;SDS011;11926;48.120;11.562;2023-08-12T01:02:00;10.30;;;6.30;;
23498;SDS011;11926;48.120;11.562;2023-08-12T01:04:47;10.75;;;7.90;;
23498;SDS011;11926;48.120;11.562;2023-08-12T01:07:35;12.65;;;6.40;;
23498;SDS011;11926;48.120;11.562;2023-08-12T01:10:23;9.23;;;5.65;;
23498;SDS011;11926;48.120;11.562;2023-08-12T01:13:17;9.32;;;5.85;;
23498;SDS011;11926;48.120;11.562;2023-08-12T01:16:12;9.05;;;6.03;;
23498;SDS011;11926;48.120;11.562;2023-08-12T01:19:03;9.13;;;5.60;;
23498;SDS011;11926;48.120;11.562;2023-08-12T01:21:53;9.43;;;5.78;;
23498;SDS011;11926;48.120;11.562;2023-08-12T01:24:44;8.25;;;5.47;;
23498;SDS011;11926;48.120;11.562;2023-08-12T01:27:31;17.95;;;6.70;;
23498;SDS011;11926;48.120;11.562;2023-08-12T01:30:20;7.82;;;5.35;;
23498;SDS011;11926;48.120;11.562;2023-08-12T01:33:10;7.60;;;5.68;;
23498;SDS011;11926;48.120;11.562;2023-08-12T01:36:06;7.55;;;5.68;;
23498;SDS011;11926;48.120;11.562;2023-08-12T01:38:56;7.28;;;5.38;;
23498;SDS011;11926;48.120;11.562;2023-08-12T01:41:50;8.02;;;5.50;;
23498;SDS011;11926;48.120;11.562;2023-08-12T01:44:39;9.85;;;5.43;;
23498;SDS011;11926;48.120;11.562;2023-08-12T01:47:26;8.60;;;5.75;;
23498;SDS011;11926;48.120;11.562;2023-08-12T01:50:14;11.55;;;5.63;;
23498;SDS011;11926;48.120;11.562;2023-08-12T01:53:01;7.97;;;5.40;;
23498;SDS011;11926;48.120;11.562;2023-08-12T01:55:50;9.93;;;5.32;;
23498;SDS011;11926;48.120;11.562;2023-08-12T01:58:40;7.60;;;5.43;;
23498;SDS011;11926;48.120;11.562;2023-08-12T02:01:27;8.07;;;5.63;;
23498;SDS011;11926;48.120;11.562;2023-08-12T02:04:14;9.68;;;5.70;;
23498;SDS011;11926;48.120;11.562;2023-08-12T02:07:01;6.95;;;4.95;;
23498;SDS011;11926;48.120;11.562;2023-08-12T02:09:48;12.05;;;6.15;;
23498;SDS011;11926;48.120;11.562;2023-08-12T02:12:36;9.10;;;5.45;;
23498;SDS011;11926;48.120;11.562;2023-08-12T02:15:25;10.18;;;5.63;;
23498;SDS011;11926;48.120;11.562;2023-08-12T02:18:12;11.15;;;6.03;;
23498;SDS011;11926;48.120;11.562;2023-08-12T02:20:59;8.82;;;5.25;;
23498;SDS011;11926;48.120;11.562;2023-08-12T02:23:46;8.85;;;5.65;;
23498;SDS011;11926;48.120;11.562;2023-08-12T02:26:34;8.80;;;5.97;;
23498;SDS011;11926;48.120;11.562;2023-08-12T02:29:21;9.70;;;6.45;;
23498;SDS011;11926;48.120;11.562;2023-08-12T02:32:09;8.45;;;5.68;;
23498;SDS011;11926;48.120;11.562;2023-08-12T02:34:57;9.43;;;5.60;;
23498;SDS011;11926;48.120;11.562;2023-08-12T02:37:44;8.75;;;5.97;;
23498;SDS011;11926;48.120;11.562;2023-08-12T02:40:31;8.07;;;5.78;;
23498;SDS011;11926;48.120;11.562;2023-08-12T02:43:18;7.22;;;5.25;;
23498;SDS011;11926;48.120;11.562;2023-08-12T02:46:05;8.13;;;5.55;;
23498;SDS011;11926;48.120;11.562;2023-08-12T02:48:55;8.55;;;5.55;;
23498;SDS011;11926;48.120;11.562;2023-08-12T02:51:42;11.25;;;5.75;;
23498;SDS011;11926;48.120;11.562;2023-08-12T02:54:30;10.40;;;5.85;;
23498;SDS011;11926;48.120;11.562;2023-08-12T02:57:17;7.97;;;5.55;;
23498;SDS011;11926;48.120;11.562;2023-08-12T03:00:04;9.60;;;5.85;;
23498;SDS011;11926;48.120;11.562;2023-08-12T03:02:53;7.20;;;5.28;;
23498;SDS011;11926;48.120;11.562;2023-08-12T03:05:42;9.13;;;6.45;;
23498;SDS011;11926;48.120;11.562;2023-08-12T03:08:32;7.38;;;5.57;;
23498;SDS011;11926;48.120;11.562;2023-08-12T03:11:21;8.20;;;5.88;;
23498;SDS011;11926;48.120;11.562;2023-08-12T03:14:11;9.57;;;5.97;;
23498;SDS011;11926;48.120;11.562;2023-08-12T03:16:58;7.88;;;5.78;;
23498;SDS011;11926;48.120;11.562;2023-08-12T03:19:47;10.70;;;5.50;;
23498;SDS011;11926;48.120;11.562;2023-08-12T03:22:36;10.27;;;5.68;;
23498;SDS011;11926;48.120;11.562;2023-08-12T03:25:25;10.15;;;5.70;;
23498;SDS011;11926;48.120;11.562;2023-08-12T03:28:13;9.18;;;5.63;;
23498;SDS011;11926;48.120;11.562;2023-08-12T03:31:00;9.68;;;6.15;;
23498;SDS011;11926;48.120;11.562;2023-08-12T03:33:50;8.90;;;5.50;;
23498;SDS011;11926;48.120;11.562;2023-08-12T03:36:37;12.18;;;6.40;;
23498;SDS011;11926;48.120;11.562;2023-08-12T03:39:26;10.70;;;6.57;;
23498;SDS011;11926;48.120;11.562;2023-08-12T03:42:15;10.40;;;6.07;;
23498;SDS011;11926;48.120;11.562;2023-08-12T03:45:02;8.60;;;5.97;;
23498;SDS011;11926;48.120;11.562;2023-08-12T03:47:50;12.13;;;6.57;;
23498;SDS011;11926;48.120;11.562;2023-08-12T03:50:38;9.43;;;5.80;;
23498;SDS011;11926;48.120;11.562;2023-08-12T03:53:25;9.48;;;6.05;;
23498;SDS011;11926;48.120;11.562;2023-08-12T03:56:15;9.70;;;5.97;;
23498;SDS011;11926;48.120;11.562;2023-08-12T03:59:02;10.13;;;6.07;;
23498;SDS011;11926;48.120;11.562;2023-08-12T04:01:50;10.95;;;6.05;;
23498;SDS011;11926;48.120;11.562;2023-08-12T04:04:36;11.80;;;6.45;;
23498;SDS011;11926;48.120;11.562;2023-08-12T04:07:23;12.48;;;6.50;;
23498;SDS011;11926;48.120;11.562;2023-08-12T04:10:12;9.63;;;5.60;;
23498;SDS011;11926;48.120;11.562;2023-08-12T04:13:01;9.93;;;6.47;;
23498;SDS011;11926;48.120;11.562;2023-08-12T04:15:51;13.98;;;6.78;;
23498;SDS011;11926;48.120;11.562;2023-08-12T04:18:39;12.85;;;6.40;;
23498;SDS011;11926;48.120;11.562;2023-08-12T04:21:28;11.52;;;6.32;;
23498;SDS011;11926;48.120;11.562;2023-08-12T04:24:15;11.35;;;6.88;;
23498;SDS011;11926;48.120;11.562;2023-08-12T04:27:02;10.95;;;6.70;;
23498;SDS011;11926;48.120;11.562;2023-08-12T04:29:51;11.68;;;6.68;;
23498;SDS011;11926;48.120;11.562;2023-08-12T04:32:38;13.82;;;6.90;;
23498;SDS011;11926;48.120;11.562;2023-08-12T04:35:26;10.23;;;6.38;;
23498;SDS011;11926;48.120;11.562;2023-08-12T04:38:13;9.63;;;6.05;;
23498;SDS011;11926;48.120;11.562;2023-08-12T04:41:02;8.88;;;5.68;;
23498;SDS011;11926;48.120;11.562;2023-08-12T04:43:50;9.38;;;5.88;;
23498;SDS011;11926;48.120;11.562;2023-08-12T04:46:39;12.77;;;6.88;;
23498;SDS011;11926;48.120;11.562;2023-08-12T04:49:27;14.10;;;6.00;;
23498;SDS011;11926;48.120;11.562;2023-08-12T04:52:15;11.90;;;6.50;;
23498;SDS011;11926;48.120;11.562;2023-08-12T04:55:02;13.95;;;6.97;;
23498;SDS011;11926;48.120;11.562;2023-08-12T04:57:50;12.80;;;6.53;;
23498;SDS011;11926;48.120;11.562;2023-08-12T05:00:38;15.98;;;6.45;;
23498;SDS011;11926;48.120;11.562;2023-08-12T05:03:28;11.30;;;6.03;;
23498;SDS011;11926;48.120;11.562;2023-08-12T05:06:15;13.25;;;6.18;;
23498;SDS011;11926;48.120;11.562;2023-08-12T05:09:03;13.35;;;7.10;;
23498;SDS011;11926;48.120;11.562;2023-08-12T05:11:51;9.93;;;6.18;;
23498;SDS011;11926;48.120;11.562;2023-08-12T05:14:39;14.43;;;6.45;;
23498;SDS011;11926;48.120;11.562;2023-08-12T05:17:27;10.23;;;5.32;;
23498;SDS011;11926;48.120;11.562;2023-08-12T05:20:16;7.57;;;5.07;;
23498;SDS011;11926;48.120;11.562;2023-08-12T05:23:03;7.88;;;5.20;;
23498;SDS011;11926;48.120;11.562;2023-08-12T05:25:52;10.02;;;5.15;;
23498;SDS011;11926;48.120;11.562;2023-08-12T05:28:39;6.68;;;4.85;;
23498;SDS011;11926;48.120;11.562;2023-08-12T05:31:26;12.65;;;5.57;;
23498;SDS011;11926;48.120;11.562;2023-08-12T05:34:14;8.10;;;5.10;;
23498;SDS011;11926;48.120;11.562;2023-08-12T05:37:02;7.68;;;4.72;;
23498;SDS011;11926;48.120;11.562;2023-08-12T05:39:50;8.25;;;5.03;;
23498;SDS011;11926;48.120;11.562;2023-08-12T05:42:37;8.02;;;4.82;;
23498;SDS011;11926;48.120;11.562;2023-08-12T05:45:24;7.70;;;4.68;;
23498;SDS011;11926;48.120;11.562;2023-08-12T05:48:11;10.13;;;5.55;;
23498;SDS011;11926;48.120;11.562;2023-08-12T05:50:59;7.28;;;4.72;;
23498;SDS011;11926;48.120;11.562;2023-08-12T05:53:47;9.85;;;4.75;;
23498;SDS011;11926;48.120;11.562;2023-08-12T05:56:35;7.03;;;4.55;;
23498;SDS011;11926;48.120;11.562;2023-08-12T05:59:22;11.13;;;5.20;;
23498;SDS011;11926;48.120;11.562;2023-08-12T06:02:09;7.97;;;4.25;;
23498;SDS011;11926;48.120;11.562;2023-08-12T06:04:57;6.13;;;3.92;;
23498;SDS011;11926;48.120;11.562;2023-08-12T06:07:44;6.03;;;3.80;;
23498;SDS011;11926;48.120;11.562;2023-08-12T06:10:33;8.70;;;4.53;;
23498;SDS011;11926;48.120;11.562;2023-08-12T06:13:24;5.13;;;3.40;;
23498;SDS011;11926;48.120;11.562;2023-08-12T06:16:11;7.15;;;3.83;;
23498;SDS011;11926;48.120;11.562;2023-08-12T06:18:59;8.32;;;3.90;;
23498;SDS011;11926;48.120;11.562;2023-08-12T06:21:46;8.38;;;3.60;;
23498;SDS011;11926;48.120;11.562;2023-08-12T06:24:33;6.65;;;3.90;;
23498;SDS011;11926;48.120;11.562;2023-08-12T06:27:22;6.45;;;3.53;;
23498;SDS011;11926;48.120;11.562;2023-08-12T06:30:10;10.23;;;3.80;;
23498;SDS011;11926;48.120;11.562;2023-08-12T06:32:59;6.72;;;3.58;;
23498;SDS011;11926;48.120;11.562;2023-08-12T06:35:46;8.27;;;3.88;;
23498;SDS011;11926;48.120;11.562;2023-08-12T06:38:35;5.30;;;3.83;;
23498;SDS011;11926;48.120;11.562;2023-08-12T06:41:22;7.32;;;3.60;;
23498;SDS011;11926;48.120;11.562;2023-08-12T06:44:11;4.30;;;3.40;;
23498;SDS011;11926;48.120;11.562;2023-08-12T06:46:58;7.47;;;3.30;;
23498;SDS011;11926;48.120;11.562;2023-08-12T06:49:45;7.43;;;3.58;;
23498;SDS011;11926;48.120;11.562;2023-08-12T06:52:35;7.10;;;3.47;;
23498;SDS011;11926;48.120;11.562;2023-08-12T06:55:22;9.75;;;3.45;;
23498;SDS011;11926;48.120;11.562;2023-08-12T06:58:09;9.13;;;3.78;;
23498;SDS011;11926;48.120;11.562;2023-08-12T07:00:58;5.07;;;3.22;;
23498;SDS011;11926;48.120;11.562;2023-08-12T07:03:46;6.70;;;3.30;;
23498;SDS011;11926;48.120;11.562;2023-08-12T07:06:33;6.75;;;3.35;;
23498;SDS011;11926;48.120;11.562;2023-08-12T07:09:20;4.78;;;3.10;;
23498;SDS011;11926;48.120;11.562;2023-08-12T07:12:07;7.65;;;2.97;;
23498;SDS011;11926;48.120;11.562;2023-08-12T07:14:55;5.38;;;3.10;;
23498;SDS011;11926;48.120;11.562;2023-08-12T07:17:44;4.10;;;3.10;;
23498;SDS011;11926;48.120;11.562;2023-08-12T07:20:31;4.40;;;3.40;;
23498;SDS011;11926;48.120;11.562;2023-08-12T07:23:18;4.82;;;3.13;;
23498;SDS011;11926;48.120;11.562;2023-08-12T07:26:05;4.32;;;3.00;;
23498;SDS011;11926;48.120;11.562;2023-08-12T07:28:52;5.20;;;3.15;;
23498;SDS011;11926;48.120;11.562;2023-08-12T07:31:39;5.72;;;3.03;;
23498;SDS011;11926;48.120;11.562;2023-08-12T07:34:29;4.72;;;2.95;;
23498;SDS011;11926;48.120;11.562;2023-08-12T07:37:16;3.97;;;2.80;;
23498;SDS011;11926;48.120;11.562;2023-08-12T07:40:03;4.22;;;3.05;;
23498;SDS011;11926;48.120;11.562;2023-08-12T07:42:51;5.70;;;3.13;;
23498;SDS011;11926;48.120;11.562;2023-08-12T07:45:38;4.35;;;3.05;;
23498;SDS011;11926;48.120;11.562;2023-08-12T07:48:25;11.40;;;3.30;;
23498;SDS011;11926;48.120;11.562;2023-08-12T07:51:14;5.60;;;3.38;;
23498;SDS011;11926;48.120;11.562;2023-08-12T07:54:01;3.95;;;2.95;;
23498;SDS011;11926;48.120;11.562;2023-08-12T07:56:48;6.60;;;2.53;;
23498;SDS011;11926;48.120;11.562;2023-08-12T07:59:35;4.03;;;2.70;;
23498;SDS011;11926;48.120;11.562;2023-08-12T08:02:22;4.35;;;2.97;;
23498;SDS011;11926;48.120;11.562;2023-08-12T08:05:10;3.25;;;2.53;;
23498;SDS011;11926;48.120;11.562;2023-08-12T08:07:59;5.30;;;2.90;;
23498;SDS011;11926;48.120;11.562;2023-08-12T08:10:46;3.90;;;2.83;;
23498;SDS011;11926;48.120;11.562;2023-08-12T08:13:33;5.00;;;2.85;;
23498;SDS011;11926;48.120;11.562;2023-08-12T08:16:20;6.32;;;2.70;;
23498;SDS011;11926;48.120;11.562;2023-08-12T08:19:08;4.93;;;2.70;;
23498;SDS011;11926;48.120;11.562;2023-08-12T08:21:58;3.58;;;2.55;;
23498;SDS011;11926;48.120;11.562;2023-08-12T08:24:46;4.32;;;2.53;;
23498;SDS011;11926;48.120;11.562;2023-08-12T08:27:34;3.30;;;2.72;;
23498;SDS011;11926;48.120;11.562;2023-08-12T08:30:21;5.90;;;2.50;;
23498;SDS011;11926;48.120;11.562;2023-08-12T08:33:10;2.78;;;2.30;;
23498;SDS011;11926;48.120;11.562;2023-08-12T08:35:57;5.00;;;2.60;;
23498;SDS011;11926;48.120;11.562;2023-08-12T08:38:44;3.92;;;2.80;;
23498;SDS011;11926;48.120;11.562;2023-08-12T08:41:33;7.28;;;2.70;;
23498;SDS011;11926;48.120;11.562;2023-08-12T08:44:24;4.95;;;3.00;;
23498;SDS011;11926;48.120;11.562;2023-08-12T08:47:16;4.70;;;2.90;;
23498;SDS011;11926;48.120;11.562;2023-08-12T08:50:06;4.03;;;2.40;;
23498;SDS011;11926;48.120;11.562;2023-08-12T08:52:56;5.13;;;2.75;;
23498;SDS011;11926;48.120;11.562;2023-08-12T08:55:43;5.43;;;2.78;;
23498;SDS011;11926;48.120;11.562;2023-08-12T08:58:33;3.03;;;2.42;;
23498;SDS011;11926;48.120;11.562;2023-08-12T09:01:20;5.65;;;2.53;;
23498;SDS011;11926;48.120;11.562;2023-08-12T09:04:08;5.20;;;2.67;;
23498;SDS011;11926;48.120;11.562;2023-08-12T09:06:57;6.32;;;2.70;;
23498;SDS011;11926;48.120;11.562;2023-08-12T09:09:47;5.20;;;2.83;;
23498;SDS011;11926;48.120;11.562;2023-08-12T09:12:39;7.60;;;3.05;;
23498;SDS011;11926;48.120;11.562;2023-08-12T09:15:29;3.97;;;3.13;;
23498;SDS011;11926;48.120;11.562;2023-08-12T09:18:16;6.85;;;2.72;;
23498;SDS011;11926;48.120;11.562;2023-08-12T09:21:04;4.28;;;2.80;;
23498;SDS011;11926;48.120;11.562;2023-08-12T09:23:51;5.43;;;3.20;;
23498;SDS011;11926;48.120;11.562;2023-08-12T09:26:39;4.45;;;2.80;;
23498;SDS011;11926;48.120;11.562;2023-08-12T09:29:29;7.45;;;3.40;;
23498;SDS011;11926;48.120;11.562;2023-08-12T09:32:19;4.85;;;2.88;;
23498;SDS011;11926;48.120;11.562;2023-08-12T09:35:14;5.88;;;3.33;;
23498;SDS011;11926;48.120;11.562;2023-08-12T09:38:03;4.93;;;3.33;;
23498;SDS011;11926;48.120;11.562;2023-08-12T09:40:52;5.80;;;3.30;;
23498;SDS011;11926;48.120;11.562;2023-08-12T09:43:40;6.15;;;3.22;;
23498;SDS011;11926;48.120;11.562;2023-08-12T09:46:28;6.32;;;3.20;;
23498;SDS011;11926;48.120;11.562;2023-08-12T09:49:20;4.55;;;3.25;;
23498;SDS011;11926;48.120;11.562;2023-08-12T09:52:08;3.88;;;3.28;;
23498;SDS011;11926;48.120;11.562;2023-08-12T09:54:55;7.22;;;3.20;;
23498;SDS011;11926;48.120;11.562;2023-08-12T09:57:44;4.22;;;3.17;;
23498;SDS011;11926;48.120;11.562;2023-08-12T10:00:35;4.03;;;3.22;;
23498;SDS011;11926;48.120;11.562;2023-08-12T10:03:23;5.30;;;2.97;;
23498;SDS011;11926;48.120;11.562;2023-08-12T10:06:13;5.15;;;2.85;;
23498;SDS011;11926;48.120;11.562;2023-08-12T10:09:02;4.05;;;2.90;;
23498;SDS011;11926;48.120;11.562;2023-08-12T10:11:53;4.32;;;2.97;;
23498;SDS011;11926;48.120;11.562;2023-08-12T10:14:41;3.90;;;2.80;;
23498;SDS011;11926;48.120;11.562;2023-08-12T10:17:28;3.95;;;2.88;;
23498;SDS011;11926;48.120;11.562;2023-08-12T10:23:13;5.15;;;2.92;;
23498;SDS011;11926;48.120;11.562;2023-08-12T10:26:05;3.97;;;3.10;;
23498;SDS011;11926;48.120;11.562;2023-08-12T10:28:53;5.30;;;2.80;;
23498;SDS011;11926;48.120;11.562;2023-08-12T10:31:41;7.70;;;3.42;;
23498;SDS011;11926;48.120;11.562;2023-08-12T10:34:29;9.98;;;3.20;;
23498;SDS011;11926;48.120;11.562;2023-08-12T10:37:18;4.80;;;3.30;;
23498;SDS011;11926;48.120;11.562;2023-08-12T10:40:19;3.90;;;3.28;;
23498;SDS011;11926;48.120;11.562;2023-08-12T10:43:08;4.35;;;3.28;;
23498;SDS011;11926;48.120;11.562;2023-08-12T10:45:57;7.28;;;2.80;;
23498;SDS011;11926;48.120;11.562;2023-08-12T10:48:49;5.35;;;3.25;;
23498;SDS011;11926;48.120;11.562;2023-08-12T10:51:45;3.70;;;2.78;;
23498;SDS011;11926;48.120;11.562;2023-08-12T10:54:33;6.43;;;3.50;;
23498;SDS011;11926;48.120;11.562;2023-08-12T10:57:35;5.43;;;3.17;;
23498;SDS011;11926;48.120;11.562;2023-08-12T11:03:12;4.53;;;3.33;;
23498;SDS011;11926;48.120;11.562;2023-08-12T11:05:59;8.68;;;3.40;;
23498;SDS011;11926;48.120;11.562;2023-08-12T11:08:51;7.20;;;2.50;;
23498;SDS011;11926;48.120;11.562;2023-08-12T11:11:39;3.72;;;2.45;;
23498;SDS011;11926;48.120;11.562;2023-08-12T11:14:27;7.47;;;2.65;;
23498;SDS011;11926;48.120;11.562;2023-08-12T11:17:16;3.88;;;2.15;;
23498;SDS011;11926;48.120;11.562;2023-08-12T11:20:04;3.58;;;2.50;;
23498;SDS011;11926;48.120;11.562;2023-08-12T11:22:53;6.38;;;2.85;;
23498;SDS011;11926;48.120;11.562;2023-08-12T11:25:42;4.63;;;2.78;;
23498;SDS011;11926;48.120;11.562;2023-08-12T11:28:30;5.40;;;2.60;;
23498;SDS011;11926;48.120;11.562;2023-08-12T11:31:19;5.50;;;2.65;;
23498;SDS011;11926;48.120;11.562;2023-08-12T11:34:08;4.47;;;2.75;;
23498;SDS011;11926;48.120;11.562;2023-08-12T11:36:57;4.28;;;2.53;;
23498;SDS011;11926;48.120;11.562;2023-08-12T11:39:45;5.00;;;2.65;;
23498;SDS011;11926;48.120;11.562;2023-08-12T11:42:32;5.22;;;2.70;;
23498;SDS011;11926;48.120;11.562;2023-08-12T11:45:20;4.07;;;2.58;;
23498;SDS011;11926;48.120;11.562;2023-08-12T11:48:10;3.22;;;2.22;;
23498;SDS011;11926;48.120;11.562;2023-08-12T11:50:59;3.38;;;2.33;;
23498;SDS011;11926;48.120;11.562;2023-08-12T11:53:47;3.40;;;2.28;;
23498;SDS011;11926;48.120;11.562;2023-08-12T11:56:34;2.67;;;2.00;;
23498;SDS011;11926;48.120;11.562;2023-08-12T11:59:22;6.45;;;2.53;;
23498;SDS011;11926;48.120;11.562;2023-08-12T12:02:10;7.45;;;2.50;;
23498;SDS011;11926;48.120;11.562;2023-08-12T12:05:04;3.60;;;2.28;;
23498;SDS011;11926;48.120;11.562;2023-08-12T12:07:54;4.90;;;2.60;;
23498;SDS011;11926;48.120;11.562;2023-08-12T12:10:41;3.03;;;2.38;;
23498;SDS011;11926;48.120;11.562;2023-08-12T12:13:29;2.95;;;2.30;;
23498;SDS011;11926;48.120;11.562;2023-08-12T12:16:16;3.85;;;2.35;;
23498;SDS011;11926;48.120;11.562;2023-08-12T12:19:03;5.03;;;2.90;;
23498;SDS011;11926;48.120;11.562;2023-08-12T12:21:54;11.43;;;2.92;;
23498;SDS011;11926;48.120;11.562;2023-08-12T12:24:44;6.18;;;2.78;;
23498;SDS011;11926;48.120;11.562;2023-08-12T12:27:32;5.65;;;2.67;;
23498;SDS011;11926;48.120;11.562;2023-08-12T12:30:19;5.88;;;3.08;;
23498;SDS011;11926;48.120;11.562;2023-08-12T12:33:07;5.68;;;2.63;;
23498;SDS011;11926;48.120;11.562;2023-08-12T12:35:54;4.22;;;2.50;;
23498;SDS011;11926;48.120;11.562;2023-08-12T12:38:46;3.65;;;2.63;;
23498;SDS011;11926;48.120;11.562;2023-08-12T12:41:33;6.85;;;2.70;;
23498;SDS011;11926;48.120;11.562;2023-08-12T12:44:20;3.97;;;2.30;;
23498;SDS011;11926;48.120;11.562;2023-08-12T12:47:07;6.20;;;2.75;;
23498;SDS011;11926;48.120;11.562;2023-08-12T12:49:57;4.70;;;2.35;;
23498;SDS011;11926;48.120;11.562;2023-08-12T12:52:44;5.30;;;2.70;;
23498;SDS011;11926;48.120;11.562;2023-08-12T12:55:34;6.75;;;2.85;;
23498;SDS011;11926;48.120;11.562;2023-08-12T12:58:21;4.35;;;3.17;;
23498;SDS011;11926;48.120;11.562;2023-08-12T13:01:08;4.95;;;3.10;;
23498;SDS011;11926;48.120;11.562;2023-08-12T13:03:56;4.68;;;2.90;;
23498;SDS011;11926;48.120;11.562;2023-08-12T13:06:44;3.72;;;2.65;;
23498;SDS011;11926;48.120;11.562;2023-08-12T13:09:31;4.40;;;2.38;;
23498;SDS011;11926;48.120;11.562;2023-08-12T13:12:20;5.78;;;2.28;;
23498;SDS011;11926;48.120;11.562;2023-08-12T13:15:07;2.80;;;2.13;;
23498;SDS011;11926;48.120;11.562;2023-08-12T13:17:55;4.13;;;2.67;;
23498;SDS011;11926;48.120;11.562;2023-08-12T13:20:42;5.35;;;2.50;;
23498;SDS011;11926;48.120;11.562;2023-08-12T13:23:29;3.80;;;2.58;;
23498;SDS011;11926;48.120;11.562;2023-08-12T13:26:16;4.30;;;2.78;;
23498;SDS011;11926;48.120;11.562;2023-08-12T13:29:05;3.78;;;2.38;;
23498;SDS011;11926;48.120;11.562;2023-08-12T13:31:53;4.25;;;2.40;;
23498;SDS011;11926;48.120;11.562;2023-08-12T13:34:41;5.22;;;2.90;;
23498;SDS011;11926;48.120;11.562;2023-08-12T13:37:31;6.80;;;2.10;;
23498;SDS011;11926;48.120;11.562;2023-08-12T13:40:19;9.50;;;3.00;;
23498;SDS011;11926;48.120;11.562;2023-08-12T13:43:07;4.13;;;2.42;;
23498;SDS011;11926;48.120;11.562;2023-08-12T13:45:56;4.50;;;2.58;;
23498;SDS011;11926;48.120;11.562;2023-08-12T13:48:43;6.38;;;2.47;;
23498;SDS011;11926;48.120;11.562;2023-08-12T13:51:31;3.83;;;2.40;;
23498;SDS011;11926;48.120;11.562;2023-08-12T13:54:18;4.63;;;2.67;;
23498;SDS011;11926;48.120;11.562;2023-08-12T13:57:05;5.20;;;2.28;;
23498;SDS011;11926;48.120;11.562;2023-08-12T13:59:52;6.93;;;2.95;;
23498;SDS011;11926;48.120;11.562;2023-08-12T14:02:41;5.50;;;2.53;;
23498;SDS011;11926;48.120;11.562;2023-08-12T14:05:28;4.97;;;2.38;;
23498;SDS011;11926;48.120;11.562;2023-08-12T14:08:16;4.10;;;2.28;;
23498;SDS011;11926;48.120;11.562;2023-08-12T14:11:03;6.82;;;2.28;;
23498;SDS011;11926;48.120;11.562;2023-08-12T14:13:50;4.85;;;2.63;;
23498;SDS011;11926;48.120;11.562;2023-08-12T14:16:37;6.07;;;2.45;;
23498;SDS011;11926;48.120;11.562;2023-08-12T14:19:26;5.95;;;2.42;;
23498;SDS011;11926;48.120;11.562;2023-08-12T14:22:13;5.68;;;2.70;;
23498;SDS011;11926;48.120;11.562;2023-08-12T14:25:01;8.68;;;2.88;;
23498;SDS011;11926;48.120;11.562;2023-08-12T14:27:51;4.82;;;2.55;;
23498;SDS011;11926;48.120;11.562;2023-08-12T14:30:38;5.72;;;2.58;;
23498;SDS011;11926;48.120;11.562;2023-08-12T14:33:25;7.15;;;2.97;;
23498;SDS011;11926;48.120;11.562;2023-08-12T14:36:16;5.90;;;2.95;;
23498;SDS011;11926;48.120;11.562;2023-08-12T14:39:03;5.88;;;2.80;;
23498;SDS011;11926;48.120;11.562;2023-08-12T14:41:50;8.35;;;3.20;;
23498;SDS011;11926;48.120;11.562;2023-08-12T14:44:38;12.57;;;3.10;;
23498;SDS011;11926;48.120;11.562;2023-08-12T14:47:25;8.88;;;3.25;;
23498;SDS011;11926;48.120;11.562;2023-08-12T14:50:12;4.43;;;3.10;;
23498;SDS011;11926;48.120;11.562;2023-08-12T14:53:01;7.30;;;2.78;;
23498;SDS011;11926;48.120;11.562;2023-08-12T14:55:48;7.13;;;2.95;;
23498;SDS011;11926;48.120;11.562;2023-08-12T14:58:35;13.50;;;3.38;;
23498;SDS011;11926;48.120;11.562;2023-08-12T15:01:23;11.20;;;2.80;;
23498;SDS011;11926;48.120;11.562;2023-08-12T15:04:15;6.80;;;3.00;;
23498;SDS011;11926;48.120;11.562;2023-08-12T15:07:03;5.95;;;2.78;;
23498;SDS011;11926;48.120;11.562;2023-08-12T15:09:51;6.72;;;2.58;;
23498;SDS011;11926;48.120;11.562;2023-08-12T15:12:40;6.60;;;2.60;;
23498;SDS011;11926;48.120;11.562;2023-08-12T15:15:27;9.52;;;2.95;;
23498;SDS011;11926;48.120;11.562;2023-08-12T15:18:14;5.88;;;2.65;;
23498;SDS011;11926;48.120;11.562;2023-08-12T15:21:02;7.28;;;2.55;;
23498;SDS011;11926;48.120;11.562;2023-08-12T15:23:49;4.85;;;2.70;;
23498;SDS011;11926;48.120;11.562;2023-08-12T15:26:39;6.30;;;2.53;;
23498;SDS011;11926;48.120;11.562;2023-08-12T15:29:26;5.68;;;2.30;;
23498;SDS011;11926;48.120;11.562;2023-08-12T15:32:14;4.82;;;2.60;;
23498;SDS011;11926;48.120;11.562;2023-08-12T15:35:02;5.97;;;2.85;;
23498;SDS011;11926;48.120;11.562;2023-08-12T15:37:49;8.27;;;2.80;;
23498;SDS011;11926;48.120;11.562;2023-08-12T15:40:37;5.47;;;2.80;;
23498;SDS011;11926;48.120;11.562;2023-08-12T15:43:25;6.35;;;2.50;;
23498;SDS011;11926;48.120;11.562;2023-08-12T15:46:12;6.63;;;2.60;;
23498;SDS011;11926;48.120;11.562;2023-08-12T15:49:01;5.05;;;2.17;;
23498;SDS011;11926;48.120;11.562;2023-08-12T15:51:50;5.40;;;2.50;;
23498;SDS011;11926;48.120;11.562;2023-08-12T15:54:37;6.55;;;2.63;;
23498;SDS011;11926;48.120;11.562;2023-08-12T15:57:24;10.43;;;3.17;;
23498;SDS011;11926;48.120;11.562;2023-08-12T16:00:12;5.90;;;2.58;;
23498;SDS011;11926;48.120;11.562;2023-08-12T16:03:00;6.57;;;2.95;;
23498;SDS011;11926;48.120;11.562;2023-08-12T16:05:48;6.18;;;3.13;;
23498;SDS011;11926;48.120;11.562;2023-08-12T16:08:35;8.32;;;2.60;;
23498;SDS011;11926;48.120;11.562;2023-08-12T16:11:24;5.85;;;2.75;;
23498;SDS011;11926;48.120;11.562;2023-08-12T16:14:12;8.73;;;2.55;;
23498;SDS011;11926;48.120;11.562;2023-08-12T16:17:01;8.82;;;2.65;;
23498;SDS011;11926;48.120;11.562;2023-08-12T16:19:53;6.22;;;2.42;;
23498;SDS011;11926;48.120;11.562;2023-08-12T16:22:40;6.95;;;2.53;;
23498;SDS011;11926;48.120;11.562;2023-08-12T16:25:27;8.07;;;2.90;;
23498;SDS011;11926;48.120;11.562;2023-08-12T16:28:15;9.25;;;3.25;;
23498;SDS011;11926;48.120;11.562;2023-08-12T16:31:03;7.35;;;3.25;;
23498;SDS011;11926;48.120;11.562;2023-08-12T16:33:51;6.00;;;3.03;;
23498;SDS011;11926;48.120;11.562;2023-08-12T16:36:39;3.92;;;2.45;;
23498;SDS011;11926;48.120;11.562;2023-08-12T16:39:26;10.95;;;3.30;;
23498;SDS011;11926;48.120;11.562;2023-08-12T16:42:13;8.48;;;3.38;;